createdAt,value
2023-03-22T00:00:56.934Z,2.40
2023-03-22T00:03:25.917Z,1.95
2023-03-22T00:05:57.722Z,2.13
2023-03-22T00:08:24.602Z,2.03
2023-03-22T00:10:51.476Z,2.13
2023-03-22T00:13:18.330Z,3.22
2023-03-22T00:15:48.728Z,4.22
2023-03-22T00:18:16.462Z,4.15
2023-03-22T00:20:50.751Z,2.47
2023-03-22T00:23:18.017Z,2.83
2023-03-22T00:25:45.778Z,3.17
2023-03-22T00:28:13.817Z,2.20
2023-03-22T00:30:41.035Z,4.68
2023-03-22T00:33:08.199Z,2.28
2023-03-22T00:35:35.054Z,2.70
2023-03-22T00:38:14.404Z,2.83
2023-03-22T00:40:42.046Z,1.95
2023-03-22T00:43:08.994Z,1.80
2023-03-22T00:45:40.849Z,1.67
2023-03-22T00:48:11.992Z,1.25
2023-03-22T00:50:40.298Z,1.45
2023-03-22T00:53:07.528Z,0.90
2023-03-22T00:55:34.327Z,1.15
2023-03-22T00:58:01.773Z,1.05
2023-03-22T01:00:28.557Z,0.82
2023-03-22T01:03:04.127Z,1.15
2023-03-22T01:05:33.373Z,0.75
2023-03-22T01:08:06.346Z,0.88
2023-03-22T01:10:33.131Z,1.00
2023-03-22T01:13:00.477Z,0.77
2023-03-22T01:15:27.274Z,0.73
2023-03-22T01:17:54.106Z,0.88
2023-03-22T01:20:21.386Z,0.77
2023-03-22T01:22:48.202Z,0.60
2023-03-22T01:25:15.366Z,1.00
2023-03-22T01:27:42.123Z,0.52
2023-03-22T01:30:09.821Z,1.42
2023-03-22T01:32:37.994Z,0.80
2023-03-22T01:35:06.854Z,0.88
2023-03-22T01:37:33.798Z,0.82
2023-03-22T01:40:00.634Z,1.20
2023-03-22T01:42:28.426Z,0.50
2023-03-22T01:45:15.817Z,0.93
2023-03-22T01:47:51.768Z,1.33
2023-03-22T01:50:19.498Z,1.42
2023-03-22T01:52:46.859Z,0.90
2023-03-22T01:55:13.923Z,1.00
2023-03-22T01:57:42.418Z,0.60
2023-03-22T02:00:15.516Z,1.58
2023-03-22T02:05:15.303Z,1.65
2023-03-22T02:07:43.288Z,0.77
2023-03-22T02:10:16.166Z,1.00
2023-03-22T02:12:50.646Z,1.15
2023-03-22T02:15:25.112Z,1.58
2023-03-22T02:18:11.407Z,1.00
2023-03-22T02:21:17.850Z,1.33
2023-03-22T02:23:50.682Z,1.90
2023-03-22T02:26:36.303Z,1.20
2023-03-22T02:29:30.085Z,1.27
2023-03-22T02:32:15.710Z,1.92
2023-03-22T02:35:17.132Z,1.35
2023-03-22T02:37:52.924Z,2.08
2023-03-22T02:40:33.243Z,1.25
2023-03-22T02:43:15.515Z,2.05
2023-03-22T02:45:47.106Z,4.65
2023-03-22T02:48:16.981Z,3.65
2023-03-22T02:51:00.454Z,5.07
2023-03-22T02:53:42.947Z,4.43
2023-03-22T02:56:27.331Z,3.75
2023-03-22T02:59:01.839Z,4.95
2023-03-22T03:01:34.161Z,3.72
2023-03-22T03:04:05.074Z,3.22
2023-03-22T03:06:38.939Z,4.43
2023-03-22T03:09:07.551Z,2.58
2023-03-22T03:11:34.387Z,3.88
2023-03-22T03:14:01.636Z,2.17
2023-03-22T03:16:35.004Z,3.70
2023-03-22T03:19:33.271Z,3.13
2023-03-22T03:22:33.079Z,2.20
2023-03-22T03:25:23.000Z,2.58
2023-03-22T03:28:10.152Z,2.78
2023-03-22T03:30:52.290Z,2.67
2023-03-22T03:33:22.088Z,2.67
2023-03-22T03:35:56.905Z,2.45
2023-03-22T03:38:27.688Z,2.67
2023-03-22T03:41:04.379Z,3.22
2023-03-22T03:43:34.281Z,3.58
2023-03-22T03:46:01.803Z,3.97
2023-03-22T03:48:30.526Z,2.90
2023-03-22T03:50:59.174Z,2.45
2023-03-22T03:53:26.009Z,4.13
2023-03-22T03:55:52.781Z,6.70
2023-03-22T03:58:19.798Z,4.07
2023-03-22T04:00:47.568Z,4.32
2023-03-22T04:03:14.818Z,4.82
2023-03-22T04:05:41.830Z,3.80
2023-03-22T04:08:08.659Z,3.28
2023-03-22T04:10:35.620Z,3.47
2023-03-22T04:13:02.500Z,3.95
2023-03-22T04:15:30.574Z,5.13
2023-03-22T04:17:57.598Z,3.00
2023-03-22T04:20:26.292Z,2.75
2023-03-22T04:22:53.174Z,2.67
2023-03-22T04:25:22.745Z,2.03
2023-03-22T04:27:51.352Z,1.60
2023-03-22T04:30:22.418Z,1.70
2023-03-22T04:32:50.258Z,1.10
2023-03-22T04:35:17.454Z,1.13
2023-03-22T04:37:45.635Z,1.33
2023-03-22T04:40:17.254Z,0.70
2023-03-22T04:42:45.579Z,0.98
2023-03-22T04:45:13.840Z,0.80
2023-03-22T04:47:40.792Z,0.80
2023-03-22T04:50:08.538Z,0.90
2023-03-22T04:52:35.481Z,0.93
2023-03-22T04:55:02.337Z,0.73
2023-03-22T04:57:29.103Z,0.50
2023-03-22T04:59:55.885Z,0.50
2023-03-22T05:02:22.781Z,0.50
2023-03-22T05:04:49.586Z,0.57
2023-03-22T05:07:16.424Z,0.50
2023-03-22T05:09:43.137Z,0.60
2023-03-22T05:12:09.902Z,0.93
2023-03-22T05:14:36.820Z,0.70
2023-03-22T05:17:03.872Z,0.93
2023-03-22T05:19:30.678Z,0.68
2023-03-22T05:21:58.291Z,1.20
2023-03-22T05:24:25.306Z,1.17
2023-03-22T05:26:53.970Z,0.90
2023-03-22T05:29:21.528Z,0.75
2023-03-22T05:31:48.738Z,0.70
2023-03-22T05:34:15.527Z,0.70
2023-03-22T05:36:42.336Z,0.82
2023-03-22T05:39:09.402Z,1.13
2023-03-22T05:41:36.891Z,1.20
2023-03-22T05:44:04.809Z,1.10
2023-03-22T05:46:31.771Z,1.15
2023-03-22T05:48:58.562Z,1.42
2023-03-22T05:51:25.658Z,1.15
2023-03-22T05:53:54.446Z,1.23
2023-03-22T05:56:24.295Z,1.20
2023-03-22T05:58:51.783Z,1.33
2023-03-22T06:01:20.541Z,1.40
2023-03-22T06:03:48.574Z,1.40
2023-03-22T06:06:15.823Z,1.60
2023-03-22T06:08:43.328Z,1.80
2023-03-22T06:11:10.232Z,2.35
2023-03-22T06:13:37.523Z,3.40
2023-03-22T06:16:05.526Z,2.90
2023-03-22T06:18:33.399Z,4.53
2023-03-22T06:21:00.721Z,4.82
2023-03-22T06:23:27.784Z,2.20
2023-03-22T06:25:54.593Z,2.45
2023-03-22T06:28:21.371Z,2.22
2023-03-22T06:30:48.244Z,2.80
2023-03-22T06:33:15.066Z,3.83
2023-03-22T06:35:41.969Z,3.67
2023-03-22T06:38:09.371Z,3.85
2023-03-22T06:40:36.613Z,2.47
2023-03-22T06:43:06.925Z,4.13
2023-03-22T06:45:35.958Z,4.53
2023-03-22T06:48:03.179Z,4.50
2023-03-22T06:50:30.612Z,3.17
2023-03-22T06:52:57.563Z,3.40
2023-03-22T06:55:24.452Z,3.47
2023-03-22T06:57:51.268Z,4.13
2023-03-22T07:00:18.375Z,2.95
2023-03-22T07:02:45.165Z,3.58
2023-03-22T07:05:12.370Z,4.63
2023-03-22T07:07:39.648Z,3.75
2023-03-22T07:10:08.007Z,3.03
2023-03-22T07:12:35.327Z,3.10
2023-03-22T07:15:03.026Z,2.00
2023-03-22T07:17:30.258Z,2.60
2023-03-22T07:19:57.426Z,4.13
2023-03-22T07:22:24.978Z,3.55
2023-03-22T07:24:57.646Z,2.40
2023-03-22T07:27:26.112Z,3.90
2023-03-22T07:29:53.341Z,2.33
2023-03-22T07:32:20.676Z,2.45
2023-03-22T07:34:48.142Z,3.88
2023-03-22T07:37:15.406Z,2.60
2023-03-22T07:39:42.622Z,2.92
2023-03-22T07:42:09.867Z,5.68
2023-03-22T07:44:37.162Z,2.20
2023-03-22T07:47:04.429Z,2.92
2023-03-22T07:49:31.911Z,2.78
2023-03-22T07:51:59.343Z,3.00
2023-03-22T07:54:33.865Z,2.08
2023-03-22T07:57:01.747Z,2.38
2023-03-22T07:59:29.038Z,2.60
2023-03-22T08:01:56.318Z,1.63
2023-03-22T08:04:23.869Z,2.63
2023-03-22T08:06:51.564Z,4.43
2023-03-22T08:09:18.966Z,2.53
2023-03-22T08:11:46.310Z,2.58
2023-03-22T08:14:13.639Z,1.33
2023-03-22T08:16:41.717Z,3.30
2023-03-22T08:19:09.034Z,3.15
2023-03-22T08:21:36.355Z,2.88
2023-03-22T08:24:04.065Z,2.17
2023-03-22T08:26:31.751Z,1.80
2023-03-22T08:28:59.762Z,2.40
2023-03-22T08:31:27.328Z,2.05
2023-03-22T08:33:54.611Z,1.45
2023-03-22T08:36:25.655Z,2.25
2023-03-22T08:38:53.541Z,1.80
2023-03-22T08:41:20.952Z,3.10
2023-03-22T08:43:48.127Z,1.23
2023-03-22T08:46:15.441Z,2.72
2023-03-22T08:48:50.397Z,3.60
2023-03-22T08:51:19.331Z,3.10
2023-03-22T08:53:47.330Z,2.22
2023-03-22T08:56:16.546Z,2.13
2023-03-22T08:58:46.678Z,1.65
2023-03-22T09:01:14.760Z,2.55
2023-03-22T09:03:42.037Z,2.08
2023-03-22T09:06:09.943Z,1.67
2023-03-22T09:08:38.188Z,2.17
2023-03-22T09:11:05.596Z,2.65
2023-03-22T09:13:32.924Z,2.10
2023-03-22T09:16:00.322Z,1.73
2023-03-22T09:18:36.842Z,2.80
2023-03-22T09:21:04.539Z,2.65
2023-03-22T09:23:32.284Z,1.70
2023-03-22T09:26:03.674Z,1.35
2023-03-22T09:28:31.501Z,1.02
2023-03-22T09:31:02.448Z,1.50
2023-03-22T09:33:29.709Z,1.58
2023-03-22T09:35:57.976Z,1.60
2023-03-22T09:38:25.513Z,1.15
2023-03-22T09:41:02.501Z,4.20
2023-03-22T09:43:40.614Z,1.25
2023-03-22T09:46:13.800Z,2.08
2023-03-22T09:48:42.501Z,1.17
2023-03-22T09:51:24.648Z,1.63
2023-03-22T09:53:58.358Z,2.25
2023-03-22T09:56:28.378Z,1.35
2023-03-22T09:59:05.401Z,2.83
2023-03-22T10:01:58.571Z,1.40
2023-03-22T10:04:38.407Z,1.35
2023-03-22T10:07:27.280Z,1.73
2023-03-22T10:10:07.387Z,1.20
2023-03-22T11:17:23.311Z,1.45
2023-03-22T11:19:54.750Z,1.40
2023-03-22T11:22:31.670Z,0.98
2023-03-22T11:24:59.294Z,1.15
2023-03-22T11:27:27.600Z,1.88
2023-03-22T11:30:16.848Z,1.50
2023-03-22T11:32:45.585Z,1.20
2023-03-22T11:35:17.779Z,1.23
2023-03-22T11:37:46.457Z,2.08
2023-03-22T11:40:21.518Z,1.13
2023-03-22T11:42:50.240Z,2.63
2023-03-22T11:45:22.471Z,0.93
2023-03-22T11:47:49.873Z,1.33
2023-03-22T11:50:32.753Z,1.48
2023-03-22T11:53:02.589Z,1.42
2023-03-22T11:55:31.925Z,0.90
2023-03-22T11:57:59.308Z,1.02
2023-03-22T12:00:27.852Z,1.92
2023-03-22T12:02:58.115Z,2.05
2023-03-22T12:05:30.456Z,1.38
2023-03-22T12:08:03.783Z,1.42
2023-03-22T12:10:33.991Z,1.05
2023-03-22T12:13:05.294Z,0.68
2023-03-22T12:15:34.143Z,1.58
2023-03-22T12:18:01.837Z,0.82
2023-03-22T12:20:43.538Z,2.00
2023-03-22T12:23:16.052Z,0.63
2023-03-22T12:25:58.312Z,1.67
2023-03-22T12:28:29.476Z,1.05
2023-03-22T12:30:58.668Z,0.90
2023-03-22T12:33:31.253Z,0.80
2023-03-22T12:36:03.653Z,1.17
2023-03-22T12:38:50.031Z,0.80
2023-03-22T12:41:19.785Z,0.80
2023-03-22T12:43:49.842Z,1.75
2023-03-22T12:46:22.331Z,1.30
2023-03-22T12:48:52.030Z,1.40
2023-03-22T12:51:19.339Z,0.85
2023-03-22T12:53:48.179Z,0.98
2023-03-22T12:56:17.501Z,1.10
2023-03-22T12:58:48.477Z,1.05
2023-03-22T13:01:37.760Z,1.15
2023-03-22T13:04:27.666Z,1.15
2023-03-22T13:06:56.200Z,1.90
2023-03-22T13:09:29.253Z,1.70
2023-03-22T13:12:25.867Z,0.85
2023-03-22T13:14:58.235Z,1.20
2023-03-22T13:17:25.861Z,2.45
2023-03-22T13:20:01.103Z,1.10
2023-03-22T13:22:28.401Z,1.48
2023-03-22T13:25:09.895Z,2.28
2023-03-22T13:27:38.830Z,0.82
2023-03-22T13:30:26.711Z,1.48
2023-03-22T13:32:56.289Z,1.38
2023-03-22T13:35:36.344Z,1.55
2023-03-22T13:38:07.719Z,1.25
2023-03-22T13:40:54.807Z,0.70
2023-03-22T13:43:28.078Z,1.35
2023-03-22T13:46:20.037Z,0.68
2023-03-22T13:48:48.042Z,2.05
2023-03-22T13:51:21.970Z,0.98
2023-03-22T13:53:49.564Z,1.92
2023-03-22T13:56:29.629Z,0.80
2023-03-22T13:58:58.682Z,0.90
2023-03-22T14:01:26.083Z,1.90
2023-03-22T14:03:53.679Z,1.05
2023-03-22T14:06:34.817Z,1.05
2023-03-22T14:09:06.343Z,1.00
2023-03-22T14:11:38.834Z,1.05
2023-03-22T14:14:11.872Z,0.63
2023-03-22T14:16:42.061Z,0.70
2023-03-22T14:19:10.037Z,0.75
2023-03-22T14:21:40.694Z,1.50
